createdAt,value
2018-11-29T00:00:54.930Z,96416.80
2018-11-29T00:03:25.257Z,96426.59
2018-11-29T00:05:55.834Z,96425.06
2018-11-29T00:08:26.133Z,96418.77
2018-11-29T00:10:59.071Z,96431.05
2018-11-29T00:13:27.597Z,96429.60
2018-11-29T00:15:57.964Z,96421.55
2018-11-29T00:18:28.427Z,96420.53
2018-11-29T00:21:00.873Z,96412.48
2018-11-29T00:23:30.119Z,96407.72
2018-11-29T00:26:00.708Z,96417.62
2018-11-29T00:28:30.996Z,96429.47
2018-11-29T00:31:01.497Z,96438.06
2018-11-29T00:33:31.804Z,96439.17
2018-11-29T00:36:02.200Z,96425.77
2018-11-29T00:38:32.537Z,96423.49
2018-11-29T00:41:02.943Z,96422.75
2018-11-29T00:43:33.330Z,96425.66
2018-11-29T00:46:03.739Z,96418.45
2018-11-29T00:48:34.247Z,96417.39
2018-11-29T00:51:04.631Z,96417.71
2018-11-29T00:53:35.029Z,96412.02
2018-11-29T00:56:05.504Z,96412.94
2018-11-29T00:58:36.080Z,96413.78
2018-11-29T01:01:06.787Z,96420.39
2018-11-29T01:03:37.290Z,96423.27
2018-11-29T01:06:07.747Z,96421.13
2018-11-29T01:08:38.175Z,96417.94
2018-11-29T01:11:08.651Z,96425.06
2018-11-29T01:13:39.145Z,96431.88
2018-11-29T01:16:09.515Z,96425.25
2018-11-29T01:18:39.932Z,96433.41
2018-11-29T01:21:10.323Z,96434.33
2018-11-29T01:23:40.683Z,96442.46
2018-11-29T01:26:11.065Z,96432.33
2018-11-29T01:28:41.491Z,96438.11
2018-11-29T01:31:11.972Z,96435.24
2018-11-29T01:33:42.367Z,96428.25
2018-11-29T01:36:12.769Z,96428.44
2018-11-29T01:38:43.062Z,96424.61
2018-11-29T01:41:13.369Z,96417.56
2018-11-29T01:43:43.681Z,96410.58
2018-11-29T01:46:14.007Z,96415.12
2018-11-29T01:48:44.327Z,96412.86
2018-11-29T01:51:14.813Z,96411.33
2018-11-29T01:53:46.061Z,96401.39
2018-11-29T01:56:16.511Z,96396.75
2018-11-29T01:58:46.902Z,96403.14
2018-11-29T02:01:17.278Z,96408.83
2018-11-29T02:03:47.586Z,96410.99
2018-11-29T02:06:17.903Z,96412.42
2018-11-29T02:08:48.312Z,96413.02
2018-11-29T02:11:18.862Z,96414.13
2018-11-29T02:13:49.275Z,96411.94
2018-11-29T02:16:19.735Z,96411.99
2018-11-29T02:18:50.045Z,96401.44
2018-11-29T02:21:21.678Z,96403.89
2018-11-29T02:23:52.130Z,96405.03
2018-11-29T02:26:22.451Z,96401.13
2018-11-29T02:28:52.887Z,96407.66
2018-11-29T02:31:23.311Z,96395.44
2018-11-29T02:33:53.815Z,96383.38
2018-11-29T02:36:24.127Z,96386.47
2018-11-29T02:38:54.510Z,96377.08
2018-11-29T02:41:43.871Z,96368.25
2018-11-29T02:44:14.174Z,96371.12
2018-11-29T02:46:44.570Z,96364.52
2018-11-29T02:49:14.955Z,96367.42
2018-11-29T02:51:45.258Z,96360.20
2018-11-29T02:54:15.767Z,96355.54
2018-11-29T02:56:46.094Z,96357.19
2018-11-29T02:59:16.471Z,96352.77
2018-11-29T03:01:46.848Z,96354.52
2018-11-29T03:04:17.326Z,96362.80
2018-11-29T03:06:47.649Z,96365.84
2018-11-29T03:09:18.229Z,96366.16
2018-11-29T03:11:48.550Z,96365.08
2018-11-29T03:14:19.019Z,96365.59
2018-11-29T03:16:49.400Z,96365.90
2018-11-29T03:19:19.868Z,96362.74
2018-11-29T03:21:50.261Z,96358.61
2018-11-29T03:24:20.698Z,96351.19
2018-11-29T03:26:51.114Z,96355.30
2018-11-29T03:29:21.508Z,96346.25
2018-11-29T03:31:51.940Z,96334.26
2018-11-29T03:34:22.405Z,96342.39
2018-11-29T03:36:52.717Z,96341.56
2018-11-29T03:39:23.066Z,96344.70
2018-11-29T03:41:53.409Z,96332.83
2018-11-29T03:44:23.814Z,96325.48
2018-11-29T03:46:54.200Z,96324.14
2018-11-29T03:49:24.600Z,96310.46
2018-11-29T03:51:55.120Z,96314.66
2018-11-29T03:54:25.535Z,96312.07
2018-11-29T03:56:55.870Z,96302.50
2018-11-29T03:59:26.387Z,96286.74
2018-11-29T04:01:56.893Z,96291.37
2018-11-29T04:04:27.252Z,96291.37
2018-11-29T04:06:57.649Z,96298.67
2018-11-29T04:09:27.986Z,96301.77
2018-11-29T04:11:58.480Z,96296.82
2018-11-29T04:14:28.804Z,96303.52
2018-11-29T04:16:59.167Z,96302.59
2018-11-29T04:19:29.647Z,96300.41
2018-11-29T04:22:00.029Z,96289.60
2018-11-29T04:24:30.626Z,96289.28
2018-11-29T04:27:00.953Z,96285.36
2018-11-29T04:29:31.435Z,96285.08
2018-11-29T04:32:01.829Z,96290.44
2018-11-29T04:34:32.171Z,96285.19
2018-11-29T04:37:02.564Z,96286.62
2018-11-29T04:39:32.963Z,96287.75
2018-11-29T04:42:03.383Z,96297.15
2018-11-29T04:44:33.794Z,96296.91
2018-11-29T04:47:04.346Z,96296.08
2018-11-29T04:49:35.227Z,96292.70
2018-11-29T04:52:06.251Z,96287.71
2018-11-29T04:54:36.676Z,96292.55
2018-11-29T04:57:07.120Z,96285.67
2018-11-29T04:59:37.437Z,96279.06
2018-11-29T05:02:08.086Z,96267.20
2018-11-29T05:04:38.537Z,96257.72
2018-11-29T05:07:09.117Z,96256.20
2018-11-29T05:09:39.437Z,96247.42
2018-11-29T05:12:09.891Z,96249.36
2018-11-29T05:14:40.195Z,96248.44
2018-11-29T05:17:10.492Z,96239.88
2018-11-29T05:19:40.996Z,96242.65
2018-11-29T05:22:11.481Z,96256.35
2018-11-29T05:24:41.790Z,96253.70
2018-11-29T05:27:12.133Z,96249.48
2018-11-29T05:29:42.665Z,96252.04
2018-11-29T05:32:13.079Z,96248.34
2018-11-29T05:34:43.415Z,96252.88
2018-11-29T05:37:13.826Z,96250.09
2018-11-29T05:39:44.352Z,96246.69
2018-11-29T05:42:14.690Z,96248.38
2018-11-29T05:44:45.010Z,96249.59
2018-11-29T05:47:15.511Z,96256.97
2018-11-29T05:49:45.843Z,96267.53
2018-11-29T05:52:16.309Z,96256.30
2018-11-29T05:54:46.617Z,96262.58
2018-11-29T05:57:17.250Z,96257.81
2018-11-29T05:59:47.644Z,96263.97
2018-11-29T06:02:18.173Z,96256.54
2018-11-29T06:04:48.592Z,96255.20
2018-11-29T06:07:18.964Z,96250.64
2018-11-29T06:09:49.357Z,96249.09
2018-11-29T06:12:19.911Z,96244.04
2018-11-29T06:14:50.325Z,96252.34
2018-11-29T06:17:20.775Z,96252.77
2018-11-29T06:19:51.200Z,96247.80
2018-11-29T06:22:21.627Z,96240.28
2018-11-29T06:24:52.023Z,96243.41
2018-11-29T06:27:22.442Z,96244.55
2018-11-29T06:29:52.750Z,96248.50
2018-11-29T06:32:23.126Z,96248.52
2018-11-29T06:34:53.540Z,96243.79
2018-11-29T06:37:23.980Z,96249.42
2018-11-29T06:39:54.389Z,96248.19
2018-11-29T06:42:24.837Z,96247.62
2018-11-29T06:44:55.148Z,96244.23
2018-11-29T06:47:25.841Z,96250.72
2018-11-29T06:49:56.321Z,96249.14
2018-11-29T06:52:26.790Z,96261.59
2018-11-29T06:54:57.121Z,96266.11
2018-11-29T06:57:27.471Z,96256.68
2018-11-29T06:59:58.005Z,96244.31
2018-11-29T07:02:28.416Z,96240.92
2018-11-29T07:04:58.862Z,96229.17
2018-11-29T07:07:29.432Z,96230.14
2018-11-29T07:09:59.854Z,96217.77
2018-11-29T07:12:30.204Z,96226.33
2018-11-29T07:15:00.579Z,96219.22
2018-11-29T07:17:30.971Z,96206.34
2018-11-29T07:20:01.313Z,96210.48
2018-11-29T07:22:31.723Z,96216.03
2018-11-29T07:25:02.195Z,96218.22
2018-11-29T07:27:32.618Z,96219.47
2018-11-29T07:30:03.024Z,96225.14
2018-11-29T07:32:33.553Z,96224.83
2018-11-29T07:35:04.064Z,96231.86
2018-11-29T07:37:34.448Z,96234.25
2018-11-29T07:40:05.382Z,96237.86
2018-11-29T07:42:35.940Z,96237.34
2018-11-29T07:45:11.094Z,96233.13
2018-11-29T07:47:41.643Z,96230.87
2018-11-29T07:50:13.367Z,96230.04
2018-11-29T07:52:43.892Z,96218.91
2018-11-29T07:55:21.482Z,96224.68
2018-11-29T07:57:53.416Z,96219.92
2018-11-29T08:00:24.935Z,96223.02
2018-11-29T08:02:55.459Z,96221.16
2018-11-29T08:05:25.849Z,96205.07
2018-11-29T08:07:56.257Z,96206.23
2018-11-29T08:10:26.761Z,96200.03
2018-11-29T08:12:57.285Z,96201.15
2018-11-29T08:15:27.890Z,96201.88
2018-11-29T08:17:58.235Z,96199.63
2018-11-29T08:20:28.558Z,96199.22
2018-11-29T08:22:58.884Z,96207.36
2018-11-29T08:25:29.350Z,96203.33
2018-11-29T08:27:59.745Z,96193.75
2018-11-29T08:30:30.150Z,96193.34
2018-11-29T08:33:00.519Z,96205.69
2018-11-29T08:35:30.933Z,96209.84
2018-11-29T08:38:01.435Z,96215.59
2018-11-29T08:40:31.799Z,96211.28
2018-11-29T08:43:02.592Z,96211.98
2018-11-29T08:45:32.977Z,96199.52
2018-11-29T08:48:03.439Z,96191.06
2018-11-29T08:50:33.953Z,96188.78
2018-11-29T08:53:04.488Z,96183.63
2018-11-29T08:55:34.882Z,96172.80
2018-11-29T08:58:05.320Z,96170.11
2018-11-29T09:00:35.714Z,96168.14
2018-11-29T09:03:06.447Z,96169.87
2018-11-29T09:05:36.933Z,96164.50
2018-11-29T09:08:07.438Z,96153.66
2018-11-29T09:10:37.911Z,96149.73
2018-11-29T09:13:08.217Z,96147.05
2018-11-29T09:15:38.516Z,96152.69
2018-11-29T09:18:08.969Z,96154.00
2018-11-29T09:20:39.298Z,96143.97
2018-11-29T09:23:09.877Z,96130.59
2018-11-29T09:25:40.268Z,96134.75
2018-11-29T09:28:10.671Z,96140.43
2018-11-29T09:30:41.060Z,96140.12
2018-11-29T09:33:11.361Z,96141.11
2018-11-29T09:35:41.749Z,96142.45
2018-11-29T09:38:12.236Z,96139.93
2018-11-29T09:40:42.654Z,96124.09
2018-11-29T09:43:13.063Z,96127.80
2018-11-29T09:45:43.552Z,96126.73
2018-11-29T09:48:14.058Z,96125.47
2018-11-29T09:50:44.577Z,96120.17
2018-11-29T09:53:15.002Z,96120.56
2018-11-29T09:55:45.345Z,96115.86
2018-11-29T09:58:15.688Z,96111.89
2018-11-29T10:00:46.073Z,96101.02
2018-11-29T10:03:17.484Z,96103.05
2018-11-29T10:05:48.308Z,96099.36
2018-11-29T10:08:25.898Z,96090.00
2018-11-29T10:10:50.609Z,96076.88
2018-11-29T10:13:21.089Z,96076.50
2018-11-29T10:15:51.499Z,96075.26
2018-11-29T10:18:21.890Z,96077.64
2018-11-29T10:20:52.288Z,96082.50
2018-11-29T10:23:22.585Z,96083.77
2018-11-29T10:25:52.995Z,96091.29
2018-11-29T10:28:23.375Z,96085.74
2018-11-29T10:31:01.215Z,96087.42
2018-11-29T10:33:31.757Z,96090.03
2018-11-29T10:36:02.223Z,96092.13
2018-11-29T10:38:32.614Z,96079.63
2018-11-29T10:41:03.096Z,96074.79
2018-11-29T10:43:33.535Z,96079.64
2018-11-29T10:46:04.123Z,96078.52
2018-11-29T10:48:34.536Z,96062.20
2018-11-29T10:51:04.936Z,96066.42
2018-11-29T10:53:37.745Z,96062.28
2018-11-29T10:56:06.941Z,96058.88
2018-11-29T10:58:37.871Z,96057.86
2018-11-29T11:01:25.616Z,96064.05
2018-11-29T11:03:56.132Z,96057.71
2018-11-29T11:06:26.664Z,96047.30
2018-11-29T11:08:57.059Z,96045.90
2018-11-29T11:11:27.668Z,96046.88
2018-11-29T11:13:58.078Z,96045.67
2018-11-29T11:16:28.491Z,96032.58
2018-11-29T11:18:59.021Z,96034.78
2018-11-29T11:21:32.397Z,96034.71
2018-11-29T11:24:02.801Z,96031.45
2018-11-29T11:26:33.300Z,96029.70
2018-11-29T11:29:03.718Z,96020.77
2018-11-29T11:31:34.854Z,96014.45
2018-11-29T11:34:05.410Z,96011.00
2018-11-29T11:36:35.978Z,96006.36
2018-11-29T11:39:08.444Z,96009.66
2018-11-29T11:41:38.850Z,96005.00
2018-11-29T11:44:09.309Z,95996.30
2018-11-29T11:46:39.772Z,96001.70
2018-11-29T11:49:10.273Z,95993.02
2018-11-29T11:51:40.714Z,96000.05
2018-11-29T11:54:11.027Z,96005.85
2018-11-29T11:56:41.487Z,95994.08
2018-11-29T11:59:11.901Z,95977.14
2018-11-29T12:01:42.330Z,95968.94
2018-11-29T12:04:12.916Z,95959.98
2018-11-29T12:06:43.222Z,95958.47
2018-11-29T12:09:13.650Z,95954.27
2018-11-29T12:11:44.092Z,95957.30
2018-11-29T12:14:14.411Z,95954.69
2018-11-29T12:16:44.747Z,95960.69
2018-11-29T12:19:15.153Z,95965.88
2018-11-29T12:21:45.773Z,95963.89
2018-11-29T12:24:16.119Z,95960.70
2018-11-29T12:26:46.540Z,95968.06
2018-11-29T12:29:17.484Z,95963.28
2018-11-29T12:31:47.920Z,95962.41
2018-11-29T12:34:18.418Z,95962.73
2018-11-29T12:36:48.768Z,95960.15
2018-11-29T12:39:19.208Z,95953.41
2018-11-29T12:41:50.280Z,95947.27
2018-11-29T12:44:20.669Z,95943.69
2018-11-29T12:46:51.070Z,95949.97
2018-11-29T12:49:25.012Z,95948.84
2018-11-29T12:51:55.696Z,95953.66
2018-11-29T12:54:26.106Z,95946.39
2018-11-29T12:56:56.412Z,95932.27
2018-11-29T12:59:26.850Z,95927.54
2018-11-29T13:01:57.376Z,95922.33
2018-11-29T13:04:27.722Z,95920.89
2018-11-29T13:06:58.150Z,95921.03
2018-11-29T13:09:28.538Z,95922.25
2018-11-29T13:11:58.941Z,95913.54
2018-11-29T13:14:29.274Z,95915.90
2018-11-29T13:16:59.718Z,95916.63
2018-11-29T13:19:30.039Z,95909.23
2018-11-29T13:22:00.459Z,95907.51
2018-11-29T13:24:30.815Z,95906.02
2018-11-29T13:27:01.131Z,95903.53
2018-11-29T13:29:31.525Z,95906.23
2018-11-29T13:32:02.051Z,95894.77
2018-11-29T13:34:32.361Z,95880.62
2018-11-29T13:37:02.682Z,95883.03
2018-11-29T13:39:33.014Z,95880.38
2018-11-29T13:42:03.518Z,95880.53
2018-11-29T13:44:33.900Z,95878.20
2018-11-29T13:47:04.420Z,95879.81
2018-11-29T13:49:34.842Z,95873.73
2018-11-29T13:52:05.363Z,95873.73
2018-11-29T13:54:35.748Z,95870.48
2018-11-29T13:57:06.622Z,95868.27
2018-11-29T13:59:36.928Z,95872.83
2018-11-29T14:02:07.565Z,95871.61
2018-11-29T14:04:37.922Z,95874.83
2018-11-29T14:07:08.710Z,95872.19
2018-11-29T14:09:39.051Z,95869.31
2018-11-29T14:12:09.456Z,95873.12
2018-11-29T14:14:40.002Z,95867.81
2018-11-29T14:17:10.501Z,95866.99
2018-11-29T14:19:41.002Z,95866.86
2018-11-29T14:22:11.341Z,95869.31
2018-11-29T14:24:41.804Z,95863.93
2018-11-29T14:27:12.192Z,95859.72
2018-11-29T14:29:42.600Z,95856.96
2018-11-29T14:32:13.039Z,95859.33
2018-11-29T14:34:43.415Z,95863.09
2018-11-29T14:37:14.023Z,95862.08
2018-11-29T14:39:44.339Z,95862.60
2018-11-29T14:42:14.944Z,95858.23
2018-11-29T14:44:45.390Z,95857.79
2018-11-29T14:47:15.836Z,95851.91
2018-11-29T14:49:46.246Z,95849.22
2018-11-29T14:52:16.734Z,95846.98
2018-11-29T14:54:47.143Z,95844.67
2018-11-29T14:57:17.624Z,95853.88
2018-11-29T14:59:48.005Z,95853.06
2018-11-29T15:02:18.528Z,95851.91
2018-11-29T15:04:48.927Z,95852.70
2018-11-29T15:07:19.224Z,95852.22
2018-11-29T15:09:49.742Z,95846.98
2018-11-29T15:12:20.130Z,95842.53
2018-11-29T15:14:50.527Z,95845.73
2018-11-29T15:17:20.936Z,95850.29
2018-11-29T15:19:51.341Z,95849.49
2018-11-29T15:22:21.779Z,95852.85
2018-11-29T15:24:52.197Z,95847.17
2018-11-29T15:27:22.579Z,95844.88
2018-11-29T15:29:53.195Z,95842.70
2018-11-29T15:32:23.625Z,95845.91
2018-11-29T15:34:53.959Z,95852.43
2018-11-29T15:37:24.380Z,95855.70
2018-11-29T15:39:54.794Z,95856.81
2018-11-29T15:42:25.109Z,95860.02
2018-11-29T15:44:55.512Z,95864.64
2018-11-29T15:47:25.911Z,95854.94
2018-11-29T15:49:56.323Z,95854.05
2018-11-29T15:52:26.786Z,95862.86
2018-11-29T15:54:57.119Z,95856.88
2018-11-29T15:57:27.486Z,95845.48
2018-11-29T15:59:57.795Z,95843.31
2018-11-29T16:02:28.129Z,95841.21
2018-11-29T16:04:58.457Z,95846.28
2018-11-29T16:07:28.850Z,95841.95
2018-11-29T16:09:59.255Z,95843.73
2018-11-29T16:12:29.671Z,95839.61
2018-11-29T16:14:59.985Z,95841.84
2018-11-29T16:17:30.377Z,95843.97
2018-11-29T16:20:00.720Z,95850.97
2018-11-29T16:22:31.164Z,95851.80
2018-11-29T16:25:01.494Z,95853.34
2018-11-29T16:27:32.034Z,95858.41
2018-11-29T16:30:02.498Z,95862.29
2018-11-29T16:32:33.100Z,95855.51
2018-11-29T16:35:03.513Z,95851.03
2018-11-29T16:37:33.844Z,95850.41
2018-11-29T16:40:04.459Z,95852.06
2018-11-29T16:42:34.780Z,95854.45
2018-11-29T16:45:06.759Z,95856.47
2018-11-29T16:47:37.199Z,95856.81
2018-11-29T16:50:11.769Z,95852.55
2018-11-29T16:52:42.348Z,95853.81
2018-11-29T16:55:13.324Z,95851.84
2018-11-29T16:57:48.600Z,95854.13
2018-11-29T17:00:23.024Z,95850.13
2018-11-29T17:02:53.538Z,95842.62
2018-11-29T17:05:24.038Z,95836.95
2018-11-29T17:07:54.350Z,95832.86
2018-11-29T17:10:24.868Z,95837.40
2018-11-29T17:12:56.734Z,95832.10
2018-11-29T17:15:27.121Z,95828.80
2018-11-29T17:17:57.515Z,95820.44
2018-11-29T17:20:27.969Z,95832.03
2018-11-29T17:22:58.291Z,95838.11
2018-11-29T17:25:28.699Z,95850.50
2018-11-29T17:27:59.094Z,95853.12
2018-11-29T17:30:29.409Z,95858.28
2018-11-29T17:33:00.128Z,95853.95
2018-11-29T17:35:30.498Z,95854.50
2018-11-29T17:38:01.524Z,95850.23
2018-11-29T17:40:31.847Z,95854.52
2018-11-29T17:43:02.332Z,95852.39
2018-11-29T17:45:32.950Z,95850.36
2018-11-29T17:48:05.046Z,95842.42
2018-11-29T17:50:42.412Z,95840.33
2018-11-29T17:53:12.910Z,95824.60
2018-11-29T17:55:43.724Z,95826.11
2018-11-29T17:58:17.561Z,95825.29
2018-11-29T18:00:49.573Z,95828.49
2018-11-29T18:03:23.733Z,95825.22
2018-11-29T18:05:54.165Z,95819.85
2018-11-29T18:08:24.566Z,95817.72
2018-11-29T18:10:57.335Z,95813.11
2018-11-29T18:13:35.432Z,95812.66
2018-11-29T18:16:06.245Z,95808.77
2018-11-29T18:18:36.560Z,95811.45
2018-11-29T18:21:07.107Z,95806.67
2018-11-29T18:23:37.444Z,95795.66
2018-11-29T18:26:07.936Z,95786.41
2018-11-29T18:28:38.545Z,95777.30
2018-11-29T18:31:08.863Z,95771.79
2018-11-29T18:33:39.338Z,95771.14
2018-11-29T18:36:14.200Z,95770.45
2018-11-29T18:38:40.911Z,95771.20
2018-11-29T18:41:11.451Z,95778.30
2018-11-29T18:43:41.797Z,95778.05
2018-11-29T18:46:17.089Z,95780.91
2018-11-29T18:48:43.602Z,95769.69
2018-11-29T18:51:13.929Z,95767.17
2018-11-29T18:53:44.247Z,95767.17
2018-11-29T18:56:14.578Z,95764.77
2018-11-29T18:58:44.910Z,95762.53
2018-11-29T19:01:15.444Z,95764.46
2018-11-29T19:03:45.744Z,95761.53
2018-11-29T19:06:16.174Z,95759.88
2018-11-29T19:08:46.651Z,95759.12
2018-11-29T19:11:16.955Z,95759.64
2018-11-29T19:13:47.380Z,95768.38
2018-11-29T19:16:17.817Z,95759.12
2018-11-29T19:18:48.109Z,95756.67
2018-11-29T19:21:18.513Z,95753.50
2018-11-29T19:23:48.961Z,95762.94
2018-11-29T19:26:19.365Z,95757.37
2018-11-29T19:28:49.775Z,95753.77
2018-11-29T19:31:20.342Z,95757.86
2018-11-29T19:33:50.596Z,95748.98
2018-11-29T19:36:21.013Z,95747.78
2018-11-29T19:38:51.412Z,95748.70
2018-11-29T19:41:21.810Z,95737.42
2018-11-29T19:43:52.216Z,95740.25
2018-11-29T19:46:22.616Z,95742.86
2018-11-29T19:48:53.114Z,95732.97
2018-11-29T19:51:23.635Z,95733.66
2018-11-29T19:53:53.942Z,95731.34
2018-11-29T19:56:24.239Z,95733.96
2018-11-29T19:58:54.675Z,95751.08
2018-11-29T20:01:24.978Z,95756.44
2018-11-29T20:03:55.397Z,95772.43
2018-11-29T20:06:25.737Z,95773.91
2018-11-29T20:08:56.095Z,95777.50
2018-11-29T20:11:26.401Z,95779.95
2018-11-29T20:13:56.697Z,95782.41
2018-11-29T20:16:27.210Z,95787.92
2018-11-29T20:18:57.614Z,95793.59
2018-11-29T20:21:30.486Z,95788.23
2018-11-29T20:23:59.310Z,95787.78
2018-11-29T20:26:29.722Z,95787.33
2018-11-29T20:29:00.243Z,95780.64
2018-11-29T20:31:30.671Z,95774.51
2018-11-29T20:34:00.977Z,95776.23
2018-11-29T20:36:31.391Z,95767.44
2018-11-29T20:39:01.883Z,95771.98
2018-11-29T20:41:32.306Z,95761.55
2018-11-29T20:44:02.744Z,95758.63
2018-11-29T20:46:33.274Z,95747.53
2018-11-29T20:49:03.668Z,95745.28
2018-11-29T20:51:34.070Z,95741.61
2018-11-29T20:54:04.460Z,95740.42
2018-11-29T20:56:34.827Z,95742.43
2018-11-29T20:59:05.753Z,95745.48
2018-11-29T21:01:36.047Z,95739.92
2018-11-29T21:04:06.345Z,95749.75
2018-11-29T21:06:36.648Z,95749.15
2018-11-29T21:09:10.133Z,95753.11
2018-11-29T21:11:40.756Z,95753.77
2018-11-29T21:14:11.109Z,95756.83
2018-11-29T21:16:41.433Z,95747.66
2018-11-29T21:19:11.834Z,95746.23
2018-11-29T21:21:42.258Z,95746.47
2018-11-29T21:24:12.558Z,95757.97
2018-11-29T21:26:42.862Z,95745.36
2018-11-29T21:29:13.173Z,95754.61
2018-11-29T21:31:43.559Z,95749.91
2018-11-29T21:34:13.864Z,95755.20
2018-11-29T21:36:44.258Z,95747.30
2018-11-29T21:39:14.581Z,95741.19
2018-11-29T21:41:44.875Z,95732.15
2018-11-29T21:44:15.199Z,95734.00
2018-11-29T21:46:45.507Z,95727.68
2018-11-29T21:49:15.803Z,95731.56
2018-11-29T21:51:46.118Z,95730.80
2018-11-29T21:54:16.417Z,95731.11
2018-11-29T21:56:46.832Z,95732.45
2018-11-29T21:59:17.155Z,95725.08
2018-11-29T22:01:47.454Z,95724.41
2018-11-29T22:04:17.783Z,95717.11
2018-11-29T22:06:48.170Z,95724.84
2018-11-29T22:09:18.650Z,95711.74
2018-11-29T22:11:49.001Z,95715.61
2018-11-29T22:14:19.276Z,95707.55
2018-11-29T22:16:49.772Z,95710.38
2018-11-29T22:19:20.084Z,95712.03
2018-11-29T22:21:50.394Z,95707.62
2018-11-29T22:24:20.698Z,95716.13
2018-11-29T22:26:51.250Z,95711.64
2018-11-29T22:29:21.664Z,95704.64
2018-11-29T22:31:52.049Z,95707.84
2018-11-29T22:34:22.349Z,95691.14
2018-11-29T22:36:52.822Z,95687.42
2018-11-29T22:39:23.226Z,95688.02
2018-11-29T22:41:53.615Z,95697.25
2018-11-29T22:44:23.906Z,95699.42
2018-11-29T22:46:54.311Z,95702.70
2018-11-29T22:49:24.689Z,95695.10
2018-11-29T22:51:55.064Z,95700.91
2018-11-29T22:54:25.462Z,95694.28
2018-11-29T22:56:55.885Z,95691.97
2018-11-29T22:59:26.203Z,95693.62
2018-11-29T23:01:57.054Z,95695.48
2018-11-29T23:04:27.342Z,95689.28
2018-11-29T23:06:57.733Z,95692.78
2018-11-29T23:09:28.039Z,95688.75
2018-11-29T23:11:58.407Z,95691.29
2018-11-29T23:14:28.899Z,95684.30
2018-11-29T23:16:59.512Z,95687.78
2018-11-29T23:19:29.894Z,95688.23
2018-11-29T23:22:00.355Z,95687.72
2018-11-29T23:24:30.675Z,95683.48
2018-11-29T23:27:01.057Z,95683.25
2018-11-29T23:29:31.376Z,95678.48
2018-11-29T23:32:01.774Z,95679.67
2018-11-29T23:34:32.078Z,95684.28
2018-11-29T23:37:02.388Z,95683.11
2018-11-29T23:39:32.680Z,95679.21
2018-11-29T23:42:02.969Z,95678.33
2018-11-29T23:44:33.249Z,95680.86
2018-11-29T23:47:03.721Z,95679.06
2018-11-29T23:49:34.007Z,95675.64
2018-11-29T23:52:04.413Z,95680.25
2018-11-29T23:54:34.886Z,95679.97
2018-11-29T23:57:05.384Z,95685.39
2018-11-29T23:59:35.959Z,95684.59
